Time;durP1;ratioP1;P1;durP2;ratioP2;P2;SDS_P1;SDS_P2;PMS_P1;PMS_P2;Temp;Humidity;BMP_temperature;BMP_pressure;BME280_temperature;BME280_humidity;BME280_pressure;Samples;Min_cycle;Max_cycle;Signal;HPM_P1;HPM_P2
2022/07/14 00:01:04;;;;;;;;;;;18.60;99.90;;;;;;4593595;19;19930;-35
2022/07/14 00:02:35;;;;;;;;;;;18.60;99.90;;;;;;4594247;19;19939;-36
2022/07/14 00:04:06;;;;;;;;;;;18.60;99.90;;;;;;4593868;19;19953;-38
2022/07/14 00:05:37;;;;;;;;;;;18.60;99.90;;;;;;4593962;19;20312;-34
2022/07/14 00:07:08;;;;;;;;;;;18.60;99.90;;;;;;4594043;19;19919;-38
2022/07/14 00:08:39;;;;;;;;;;;18.60;99.90;;;;;;4594188;19;19907;-36
2022/07/14 00:10:10;;;;;;;;;;;18.60;99.90;;;;;;4594166;19;19960;-32
2022/07/14 00:11:41;;;;;;;;;;;18.50;99.90;;;;;;4592591;19;19922;-34
2022/07/14 00:13:12;;;;;;;;;;;18.50;99.90;;;;;;4594037;19;19966;-34
2022/07/14 00:14:43;;;;;;;;;;;18.50;99.90;;;;;;4593623;19;20350;-37
2022/07/14 00:16:14;;;;;;;;;;;18.60;99.90;;;;;;4593674;19;19915;-35
2022/07/14 00:17:45;;;;;;;;;;;18.50;99.90;;;;;;4593779;19;19930;-38
2022/07/14 00:19:17;;;;;;;;;;;18.50;99.90;;;;;;4593852;19;19970;-37
2022/07/14 00:20:48;;;;;;;;;;;18.50;99.90;;;;;;4593692;19;19919;-36
2022/07/14 00:22:19;;;;;;;;;;;18.50;99.90;;;;;;4593596;19;20336;-36
2022/07/14 00:23:50;;;;;;;;;;;18.50;99.90;;;;;;4592518;19;19923;-35
2022/07/14 00:25:21;;;;;;;;;;;18.50;99.90;;;;;;4592630;19;20442;-38
2022/07/14 00:26:53;;;;;;;;;;;18.50;99.90;;;;;;4592284;19;20238;-36
2022/07/14 00:28:24;;;;;;;;;;;18.50;99.90;;;;;;4592282;19;19974;-33
2022/07/14 00:29:55;;;;;;;;;;;18.50;99.90;;;;;;4593536;19;19918;-38
2022/07/14 00:31:26;;;;;;;;;;;18.50;99.90;;;;;;4592737;19;19965;-33
2022/07/14 00:32:57;;;;;;;;;;;18.50;99.90;;;;;;4593424;19;19919;-38
2022/07/14 00:34:27;;;;;;;;;;;18.50;99.90;;;;;;4593887;19;19994;-36
2022/07/14 00:35:59;;;;;;;;;;;18.50;99.90;;;;;;4594199;19;19922;-35
2022/07/14 00:37:30;;;;;;;;;;;18.50;99.90;;;;;;4593180;19;20333;-37
2022/07/14 00:39:01;;;;;;;;;;;18.40;99.90;;;;;;4593122;19;19911;-36
2022/07/14 00:40:32;;;;;;;;;;;18.50;99.90;;;;;;4593687;19;20247;-42
2022/07/14 00:42:03;;;;;;;;;;;18.40;99.90;;;;;;4593936;19;19914;-34
2022/07/14 00:43:34;;;;;;;;;;;18.50;99.90;;;;;;4593277;19;19921;-35
2022/07/14 00:45:06;;;;;;;;;;;18.50;99.90;;;;;;4593504;19;19911;-33
2022/07/14 00:46:38;;;;;;;;;;;18.50;99.90;;;;;;4593329;19;20248;-35
2022/07/14 00:48:10;;;;;;;;;;;18.50;99.90;;;;;;4592960;19;19911;-40
2022/07/14 00:49:41;;;;;;;;;;;18.50;99.90;;;;;;4593175;19;19919;-36
2022/07/14 00:51:12;;;;;;;;;;;18.50;99.90;;;;;;4593121;19;19922;-34
2022/07/14 00:52:43;;;;;;;;;;;18.50;99.90;;;;;;4592000;19;19914;-34
2022/07/14 00:54:24;;;;;;;;;;;18.50;99.90;;;;;;4592629;19;20270;-33
2022/07/14 00:55:55;;;;;;;;;;;18.50;99.90;;;;;;4592755;19;19911;-33
2022/07/14 00:57:26;;;;;;;;;;;18.50;99.90;;;;;;4592944;19;20442;-36
2022/07/14 00:58:57;;;;;;;;;;;18.50;99.90;;;;;;4593440;19;19931;-37
2022/07/14 01:00:28;;;;;;;;;;;18.50;99.90;;;;;;4592552;19;19922;-40
2022/07/14 01:01:59;;;;;;;;;;;18.50;99.90;;;;;;4593125;19;20329;-35
2022/07/14 01:03:30;;;;;;;;;;;18.50;99.90;;;;;;4593543;19;19966;-34
2022/07/14 01:05:01;;;;;;;;;;;18.50;99.90;;;;;;4593336;19;19919;-34
2022/07/14 01:06:32;;;;;;;;;;;18.40;99.90;;;;;;4592813;19;19947;-35
2022/07/14 01:08:03;;;;;;;;;;;18.40;99.90;;;;;;4593104;19;19918;-39
2022/07/14 01:09:34;;;;;;;;;;;18.40;99.90;;;;;;4593070;19;19914;-34
2022/07/14 01:11:07;;;;;;;;;;;18.40;99.90;;;;;;4591609;19;19921;-37
2022/07/14 01:12:38;;;;;;;;;;;18.40;99.90;;;;;;4591764;19;19941;-37
2022/07/14 01:14:09;;;;;;;;;;;18.40;99.90;;;;;;4592909;19;19927;-36
2022/07/14 01:15:40;;;;;;;;;;;18.40;99.90;;;;;;4593160;19;19922;-40
2022/07/14 01:17:11;;;;;;;;;;;18.40;99.90;;;;;;4591219;19;19922;-33
2022/07/14 01:18:42;;;;;;;;;;;18.50;99.90;;;;;;4592095;19;19939;-34
2022/07/14 01:20:14;;;;;;;;;;;18.40;99.90;;;;;;4592908;19;19918;-37
2022/07/14 01:21:45;;;;;;;;;;;18.40;99.90;;;;;;4591788;19;19991;-34
2022/07/14 01:23:16;;;;;;;;;;;18.40;99.90;;;;;;4591807;19;20339;-38
2022/07/14 01:24:47;;;;;;;;;;;18.40;99.90;;;;;;4592362;19;19925;-37
2022/07/14 01:26:18;;;;;;;;;;;18.40;99.90;;;;;;4592934;19;19978;-34
2022/07/14 01:27:49;;;;;;;;;;;18.50;99.90;;;;;;4592265;19;19928;-38
2022/07/14 01:29:20;;;;;;;;;;;18.50;99.90;;;;;;4591166;19;19914;-36
2022/07/14 01:30:51;;;;;;;;;;;18.50;99.90;;;;;;4590958;19;19915;-36
2022/07/14 01:32:22;;;;;;;;;;;18.50;99.90;;;;;;4590888;19;20353;-34
2022/07/14 01:33:53;;;;;;;;;;;18.50;99.90;;;;;;4592113;19;20285;-33
2022/07/14 01:35:24;;;;;;;;;;;18.50;99.90;;;;;;4592034;19;19926;-36
2022/07/14 01:36:55;;;;;;;;;;;18.50;99.90;;;;;;4592366;19;20237;-39
2022/07/14 01:38:26;;;;;;;;;;;18.50;99.90;;;;;;4591648;19;19918;-32
2022/07/14 01:39:57;;;;;;;;;;;18.50;99.90;;;;;;4591870;19;20259;-35
2022/07/14 01:41:29;;;;;;;;;;;18.50;99.90;;;;;;4592370;19;19936;-34
2022/07/14 01:43:00;;;;;;;;;;;18.50;99.90;;;;;;4592129;19;19946;-36
2022/07/14 01:44:31;;;;;;;;;;;18.50;99.90;;;;;;4592435;19;19915;-37
2022/07/14 01:46:02;;;;;;;;;;;18.50;99.90;;;;;;4591798;19;19931;-34
2022/07/14 01:47:33;;;;;;;;;;;18.50;99.90;;;;;;4592292;19;19911;-37
2022/07/14 01:49:05;;;;;;;;;;;18.50;99.90;;;;;;4592399;19;19915;-36
2022/07/14 01:50:36;;;;;;;;;;;18.50;99.90;;;;;;4591550;19;19919;-32
2022/07/14 01:52:07;;;;;;;;;;;18.50;99.90;;;;;;4591334;19;19915;-38
2022/07/14 01:53:38;;;;;;;;;;;18.50;99.90;;;;;;4592480;19;20226;-35
2022/07/14 01:55:09;;;;;;;;;;;18.50;99.90;;;;;;4592316;19;19915;-35
2022/07/14 01:56:40;;;;;;;;;;;18.50;99.90;;;;;;4591552;19;19913;-37
2022/07/14 01:58:11;;;;;;;;;;;18.50;99.90;;;;;;4591708;19;19937;-39
2022/07/14 01:59:42;;;;;;;;;;;18.50;99.90;;;;;;4591216;19;19919;-33
2022/07/14 02:03:03;;;;;;;;;;;18.50;99.90;;;;;;4591687;19;19918;-37
2022/07/14 02:04:34;;;;;;;;;;;18.50;99.90;;;;;;4591542;19;19970;-35
2022/07/14 02:06:05;;;;;;;;;;;18.50;99.90;;;;;;4591640;19;20321;-34
2022/07/14 02:07:36;;;;;;;;;;;18.50;99.90;;;;;;4591789;19;19925;-39
2022/07/14 02:09:07;;;;;;;;;;;18.50;99.90;;;;;;4588993;19;20432;-36
2022/07/14 02:12:27;;;;;;;;;;;18.40;99.90;;;;;;4591090;19;19911;-34
2022/07/14 02:13:59;;;;;;;;;;;18.40;99.90;;;;;;4591564;19;20264;-35
2022/07/14 02:15:30;;;;;;;;;;;18.40;99.90;;;;;;4591254;19;19915;-36
2022/07/14 02:17:01;;;;;;;;;;;18.40;99.90;;;;;;4591562;19;19915;-33
2022/07/14 02:18:32;;;;;;;;;;;18.40;99.90;;;;;;4590590;19;19915;-33
2022/07/14 02:20:04;;;;;;;;;;;18.40;99.90;;;;;;4591900;19;19922;-37
2022/07/14 02:21:35;;;;;;;;;;;18.30;99.90;;;;;;4591090;19;20261;-35
2022/07/14 02:23:06;;;;;;;;;;;18.30;99.90;;;;;;4588681;19;19914;-34
2022/07/14 02:24:37;;;;;;;;;;;18.30;99.90;;;;;;4590683;19;19918;-37
2022/07/14 02:26:12;;;;;;;;;;;18.30;99.90;;;;;;4590913;19;19922;-36
2022/07/14 02:27:43;;;;;;;;;;;18.30;99.90;;;;;;4591196;19;19933;-37
2022/07/14 02:29:14;;;;;;;;;;;18.30;99.90;;;;;;4591540;19;19914;-37
2022/07/14 02:30:45;;;;;;;;;;;18.30;99.90;;;;;;4591288;19;19907;-38
2022/07/14 02:32:17;;;;;;;;;;;18.30;99.90;;;;;;4590239;19;20321;-35
2022/07/14 02:33:48;;;;;;;;;;;18.30;99.90;;;;;;4590946;19;19919;-37
2022/07/14 02:35:19;;;;;;;;;;;18.20;99.90;;;;;;4591495;19;19919;-36
2022/07/14 02:36:49;;;;;;;;;;;18.20;99.90;;;;;;4591612;19;19914;-35
2022/07/14 02:38:21;;;;;;;;;;;18.20;99.90;;;;;;4591033;19;19925;-38
2022/07/14 02:39:52;;;;;;;;;;;18.10;99.90;;;;;;4590963;19;19921;-37
2022/07/14 02:41:23;;;;;;;;;;;18.10;99.90;;;;;;4591332;19;20328;-36
2022/07/14 02:42:54;;;;;;;;;;;18.20;99.90;;;;;;4591577;19;19917;-34
2022/07/14 02:44:25;;;;;;;;;;;18.10;99.90;;;;;;4590795;19;19925;-38
2022/07/14 02:45:56;;;;;;;;;;;18.20;99.90;;;;;;4590076;19;19939;-36
2022/07/14 02:47:27;;;;;;;;;;;18.10;99.90;;;;;;4590163;19;20324;-38
2022/07/14 02:48:58;;;;;;;;;;;18.20;99.90;;;;;;4590181;19;19915;-37
2022/07/14 02:50:29;;;;;;;;;;;18.20;99.90;;;;;;4590520;19;19922;-36
2022/07/14 02:52:00;;;;;;;;;;;18.10;99.90;;;;;;4590724;19;20416;-39
2022/07/14 02:53:32;;;;;;;;;;;18.10;99.90;;;;;;4590923;19;19915;-34
2022/07/14 02:55:03;;;;;;;;;;;18.10;99.90;;;;;;4590682;19;19919;-34
2022/07/14 02:56:35;;;;;;;;;;;18.10;99.90;;;;;;4590728;19;20332;-33
2022/07/14 02:58:06;;;;;;;;;;;18.10;99.90;;;;;;4591308;19;19985;-36
2022/07/14 02:59:40;;;;;;;;;;;18.10;99.90;;;;;;4590889;19;19911;-32
2022/07/14 03:01:11;;;;;;;;;;;18.10;99.90;;;;;;4590463;19;19934;-34
2022/07/14 03:02:42;;;;;;;;;;;18.10;99.90;;;;;;4590620;19;19948;-36
2022/07/14 03:04:13;;;;;;;;;;;18.00;99.90;;;;;;4590370;19;19923;-34
2022/07/14 03:05:44;;;;;;;;;;;18.10;99.90;;;;;;4590704;19;19922;-38
2022/07/14 03:07:15;;;;;;;;;;;18.00;99.90;;;;;;4590646;19;19915;-36
2022/07/14 03:08:47;;;;;;;;;;;18.00;99.90;;;;;;4591053;19;19923;-39
2022/07/14 03:10:18;;;;;;;;;;;18.00;99.90;;;;;;4590867;19;19918;-33
2022/07/14 03:11:49;;;;;;;;;;;18.00;99.90;;;;;;4588953;19;19923;-36
2022/07/14 03:13:20;;;;;;;;;;;18.00;99.90;;;;;;4590465;19;19978;-33
2022/07/14 03:14:51;;;;;;;;;;;18.00;99.90;;;;;;4590254;19;19921;-33
2022/07/14 03:16:22;;;;;;;;;;;18.00;99.90;;;;;;4590974;19;19926;-32
2022/07/14 03:17:53;;;;;;;;;;;18.00;99.90;;;;;;4590054;19;19927;-37
2022/07/14 03:19:24;;;;;;;;;;;18.00;99.90;;;;;;4590353;19;19914;-35
2022/07/14 03:20:55;;;;;;;;;;;18.00;99.90;;;;;;4590780;19;19930;-36
2022/07/14 03:22:27;;;;;;;;;;;18.00;99.90;;;;;;4590581;19;19997;-38
2022/07/14 03:23:58;;;;;;;;;;;18.00;99.90;;;;;;4590177;19;19949;-32
2022/07/14 03:25:29;;;;;;;;;;;18.00;99.90;;;;;;4590242;19;19922;-42
2022/07/14 03:27:00;;;;;;;;;;;18.00;99.90;;;;;;4590598;19;19933;-34
2022/07/14 03:28:31;;;;;;;;;;;18.00;99.90;;;;;;4589977;19;19915;-37
2022/07/14 03:30:02;;;;;;;;;;;18.00;99.90;;;;;;4589876;19;19910;-39
2022/07/14 03:31:34;;;;;;;;;;;18.00;99.90;;;;;;4595043;19;19929;-34
2022/07/14 03:33:05;;;;;;;;;;;18.00;99.90;;;;;;4595225;19;19923;-33
2022/07/14 03:34:36;;;;;;;;;;;18.10;99.90;;;;;;4594396;19;19914;-34
2022/07/14 03:36:07;;;;;;;;;;;18.10;99.90;;;;;;4594570;19;19918;-36
2022/07/14 03:37:38;;;;;;;;;;;18.10;99.90;;;;;;4594132;19;19911;-36
2022/07/14 03:39:10;;;;;;;;;;;18.10;99.90;;;;;;4594754;19;19915;-37
2022/07/14 03:40:41;;;;;;;;;;;18.10;99.90;;;;;;4594976;19;19932;-36
2022/07/14 03:42:11;;;;;;;;;;;18.10;99.90;;;;;;4594803;19;19929;-36
2022/07/14 03:43:43;;;;;;;;;;;18.10;99.90;;;;;;4593651;19;20345;-35
2022/07/14 03:45:15;;;;;;;;;;;18.10;99.90;;;;;;4593853;19;20245;-32
2022/07/14 03:46:46;;;;;;;;;;;18.10;99.90;;;;;;4594252;19;19925;-38
2022/07/14 03:48:17;;;;;;;;;;;18.10;99.90;;;;;;4594462;19;19919;-35
2022/07/14 03:49:48;;;;;;;;;;;18.10;99.90;;;;;;4594946;19;19915;-31
2022/07/14 03:51:19;;;;;;;;;;;18.20;99.90;;;;;;4594259;19;20260;-31
2022/07/14 03:52:50;;;;;;;;;;;18.10;99.90;;;;;;4592681;19;19970;-32
2022/07/14 03:54:21;;;;;;;;;;;18.10;99.90;;;;;;4594038;19;19925;-31
2022/07/14 03:55:52;;;;;;;;;;;18.20;99.90;;;;;;4595336;19;19919;-33
2022/07/14 03:57:23;;;;;;;;;;;18.20;99.90;;;;;;4594360;19;20324;-31
2022/07/14 03:58:54;;;;;;;;;;;18.20;99.90;;;;;;4594292;19;19919;-34
2022/07/14 04:00:25;;;;;;;;;;;18.20;99.90;;;;;;4593358;19;19937;-39
2022/07/14 04:01:56;;;;;;;;;;;18.20;99.90;;;;;;4593411;19;19914;-40
2022/07/14 04:03:28;;;;;;;;;;;18.20;99.90;;;;;;4595808;19;20329;-33
2022/07/14 04:04:58;;;;;;;;;;;18.20;99.90;;;;;;4594436;19;19919;-39
2022/07/14 04:06:29;;;;;;;;;;;18.20;99.90;;;;;;4594121;19;19979;-35
2022/07/14 04:08:00;;;;;;;;;;;18.20;99.90;;;;;;4593713;19;19914;-35
2022/07/14 04:09:32;;;;;;;;;;;18.20;99.90;;;;;;4594107;19;19923;-34
2022/07/14 04:11:03;;;;;;;;;;;18.20;99.90;;;;;;4592757;19;19911;-34
2022/07/14 04:12:34;;;;;;;;;;;18.30;99.90;;;;;;4593381;19;19936;-38
2022/07/14 04:14:05;;;;;;;;;;;18.30;99.90;;;;;;4593691;19;19914;-35
2022/07/14 04:15:39;;;;;;;;;;;18.30;99.90;;;;;;4595738;19;19926;-38
2022/07/14 04:17:10;;;;;;;;;;;18.30;99.90;;;;;;4592904;19;19915;-36
2022/07/14 04:18:41;;;;;;;;;;;18.30;99.90;;;;;;4593007;19;19938;-38
2022/07/14 04:20:12;;;;;;;;;;;18.30;99.90;;;;;;4593496;19;20361;-34
2022/07/14 04:21:43;;;;;;;;;;;18.30;99.90;;;;;;4593571;19;19926;-33
2022/07/14 04:23:14;;;;;;;;;;;18.30;99.90;;;;;;4566841;19;19918;-40
2022/07/14 04:24:45;;;;;;;;;;;18.30;99.90;;;;;;4590715;19;20369;-38
2022/07/14 04:26:17;;;;;;;;;;;18.30;99.90;;;;;;4592323;19;19923;-38
2022/07/14 04:27:48;;;;;;;;;;;18.30;99.90;;;;;;4589899;19;19918;-39
2022/07/14 04:29:19;;;;;;;;;;;18.30;99.90;;;;;;4592500;19;20333;-37
2022/07/14 04:30:50;;;;;;;;;;;18.30;99.90;;;;;;4591063;19;19933;-39
2022/07/14 04:32:21;;;;;;;;;;;18.30;99.90;;;;;;4590357;19;19938;-37
2022/07/14 04:33:52;;;;;;;;;;;18.30;99.90;;;;;;4591446;19;19915;-35
2022/07/14 04:35:23;;;;;;;;;;;18.30;99.90;;;;;;4593914;19;20357;-39
2022/07/14 04:36:54;;;;;;;;;;;18.30;99.90;;;;;;4593406;19;19919;-36
2022/07/14 04:38:25;;;;;;;;;;;18.30;99.90;;;;;;4593366;19;19919;-36
2022/07/14 04:39:56;;;;;;;;;;;18.30;99.90;;;;;;4592948;19;19937;-35
2022/07/14 04:41:27;;;;;;;;;;;18.30;99.90;;;;;;4591291;19;19915;-37
2022/07/14 04:42:58;;;;;;;;;;;18.30;99.90;;;;;;4591499;19;19914;-34
2022/07/14 04:44:29;;;;;;;;;;;18.30;99.90;;;;;;4591271;19;19982;-35
2022/07/14 04:46:01;;;;;;;;;;;18.30;99.90;;;;;;4591687;19;19918;-36
2022/07/14 04:47:31;;;;;;;;;;;18.30;99.90;;;;;;4591022;19;19993;-34
2022/07/14 04:52:45;;;;;;;;;;;18.40;99.90;;;;;;4590453;19;19925;-33
2022/07/14 04:54:16;;;;;;;;;;;18.40;99.90;;;;;;4591357;19;19915;-35
2022/07/14 04:55:47;;;;;;;;;;;18.40;99.90;;;;;;4593294;19;19922;-33
2022/07/14 04:57:19;;;;;;;;;;;18.40;99.90;;;;;;4593082;19;20271;-37
2022/07/14 04:58:50;;;;;;;;;;;18.40;99.90;;;;;;4593000;19;20257;-34
2022/07/14 05:00:21;;;;;;;;;;;18.40;99.90;;;;;;4591372;19;19966;-37
2022/07/14 05:01:52;;;;;;;;;;;18.40;99.90;;;;;;4591629;19;19939;-33
2022/07/14 05:03:23;;;;;;;;;;;18.40;99.90;;;;;;4591488;19;20449;-32
2022/07/14 05:04:55;;;;;;;;;;;18.40;99.90;;;;;;4591559;19;19915;-37
2022/07/14 05:06:25;;;;;;;;;;;18.40;99.90;;;;;;4590551;19;19934;-37
2022/07/14 05:07:56;;;;;;;;;;;18.40;99.90;;;;;;4590882;19;20406;-39
2022/07/14 05:09:32;;;;;;;;;;;18.40;99.90;;;;;;4590482;19;19944;-34
2022/07/14 05:11:06;;;;;;;;;;;18.40;99.90;;;;;;4592589;19;19922;-34
2022/07/14 05:12:37;;;;;;;;;;;18.50;99.90;;;;;;4592027;19;19919;-41
2022/07/14 05:14:08;;;;;;;;;;;18.50;99.90;;;;;;4592517;19;19941;-34
2022/07/14 05:15:39;;;;;;;;;;;18.50;99.90;;;;;;4592275;19;19921;-34
2022/07/14 05:17:11;;;;;;;;;;;18.50;99.90;;;;;;4592260;19;19922;-38
2022/07/14 05:18:42;;;;;;;;;;;18.50;99.90;;;;;;4591388;19;19941;-34
2022/07/14 05:20:13;;;;;;;;;;;18.50;99.90;;;;;;4589749;19;19940;-40
2022/07/14 05:21:44;;;;;;;;;;;18.50;99.90;;;;;;4589952;19;19953;-39
2022/07/14 05:23:15;;;;;;;;;;;18.50;99.90;;;;;;4589846;19;19919;-37
2022/07/14 05:24:46;;;;;;;;;;;18.50;99.90;;;;;;4589138;19;19953;-35
2022/07/14 05:26:17;;;;;;;;;;;18.50;99.90;;;;;;4590380;19;19919;-34
2022/07/14 05:27:48;;;;;;;;;;;18.50;99.90;;;;;;4589884;19;20339;-34
2022/07/14 05:29:19;;;;;;;;;;;18.50;99.90;;;;;;4589675;19;20261;-37
2022/07/14 05:30:54;;;;;;;;;;;18.50;99.90;;;;;;4589274;19;19927;-36
2022/07/14 05:32:25;;;;;;;;;;;18.50;99.90;;;;;;4588599;19;19915;-41
2022/07/14 05:33:56;;;;;;;;;;;18.50;99.90;;;;;;4588825;19;20033;-32
2022/07/14 05:35:28;;;;;;;;;;;18.50;99.90;;;;;;4588464;19;19914;-36
2022/07/14 05:36:59;;;;;;;;;;;18.60;99.90;;;;;;4587991;19;19962;-39
2022/07/14 05:38:33;;;;;;;;;;;18.50;99.90;;;;;;4588010;19;19960;-34
2022/07/14 05:40:04;;;;;;;;;;;18.50;99.90;;;;;;4588469;19;19921;-39
2022/07/14 05:41:35;;;;;;;;;;;18.50;99.90;;;;;;4590271;19;19933;-36
2022/07/14 05:43:06;;;;;;;;;;;18.50;99.90;;;;;;4589819;19;20276;-33
2022/07/14 05:44:37;;;;;;;;;;;18.60;99.90;;;;;;4590037;19;19919;-39
2022/07/14 05:46:08;;;;;;;;;;;18.60;99.90;;;;;;4589011;19;20254;-35
2022/07/14 05:47:41;;;;;;;;;;;18.60;99.90;;;;;;4588686;19;19930;-35
2022/07/14 05:49:12;;;;;;;;;;;18.60;99.90;;;;;;4588613;19;19915;-34
2022/07/14 05:50:43;;;;;;;;;;;18.60;99.90;;;;;;4588347;19;20319;-33
2022/07/14 05:52:14;;;;;;;;;;;18.60;99.90;;;;;;4587011;19;19915;-35
2022/07/14 05:53:45;;;;;;;;;;;18.60;99.90;;;;;;4585823;19;19910;-32
2022/07/14 05:55:16;;;;;;;;;;;18.60;99.90;;;;;;4589840;19;19933;-37
2022/07/14 05:56:47;;;;;;;;;;;18.60;99.90;;;;;;4590325;19;19914;-38
2022/07/14 05:58:18;;;;;;;;;;;18.60;99.90;;;;;;4589160;19;19915;-33
2022/07/14 05:59:49;;;;;;;;;;;18.70;99.90;;;;;;4587717;19;19982;-34
2022/07/14 06:01:21;;;;;;;;;;;18.60;99.90;;;;;;4587772;19;19919;-37
2022/07/14 06:02:52;;;;;;;;;;;18.60;99.90;;;;;;4587183;19;19986;-33
2022/07/14 06:04:23;;;;;;;;;;;18.60;99.90;;;;;;4588585;19;19918;-40
2022/07/14 06:05:54;;;;;;;;;;;18.60;99.90;;;;;;4592127;19;19915;-36
2022/07/14 06:07:25;;;;;;;;;;;18.70;99.90;;;;;;4592069;19;19925;-31
2022/07/14 06:08:56;;;;;;;;;;;18.70;99.90;;;;;;4591227;19;19925;-39
2022/07/14 06:10:27;;;;;;;;;;;18.70;99.90;;;;;;4590204;19;19918;-38
2022/07/14 06:11:58;;;;;;;;;;;18.70;99.90;;;;;;4590157;19;20340;-33
2022/07/14 06:13:32;;;;;;;;;;;18.70;99.90;;;;;;4589830;19;19952;-39
2022/07/14 06:15:05;;;;;;;;;;;18.70;99.90;;;;;;4589638;19;19914;-37
2022/07/14 06:16:36;;;;;;;;;;;18.70;99.90;;;;;;4589480;19;19925;-36
2022/07/14 06:18:08;;;;;;;;;;;18.70;99.90;;;;;;4588202;19;20374;-36
2022/07/14 06:19:39;;;;;;;;;;;18.70;99.90;;;;;;4589416;19;19910;-38
2022/07/14 06:21:10;;;;;;;;;;;18.80;99.90;;;;;;4592700;19;19952;-35
2022/07/14 06:22:41;;;;;;;;;;;18.80;99.90;;;;;;4590995;19;19926;-39
2022/07/14 06:24:12;;;;;;;;;;;18.80;99.90;;;;;;4591148;19;20241;-37
2022/07/14 06:25:43;;;;;;;;;;;18.80;99.90;;;;;;4591042;19;19974;-36
2022/07/14 06:27:14;;;;;;;;;;;18.80;99.90;;;;;;4591186;19;20294;-35
2022/07/14 06:28:46;;;;;;;;;;;18.80;99.90;;;;;;4593551;19;19986;-36
2022/07/14 06:30:17;;;;;;;;;;;18.80;99.90;;;;;;4591580;19;20321;-34
2022/07/14 06:31:51;;;;;;;;;;;18.80;99.90;;;;;;4590214;19;19948;-37
2022/07/14 06:33:22;;;;;;;;;;;18.80;99.90;;;;;;4590899;19;19915;-34
2022/07/14 06:34:53;;;;;;;;;;;18.80;99.90;;;;;;4591097;19;19942;-36
2022/07/14 06:36:24;;;;;;;;;;;18.80;99.90;;;;;;4590295;19;19927;-34
2022/07/14 06:37:55;;;;;;;;;;;18.80;99.90;;;;;;4589166;19;19919;-37
2022/07/14 06:39:26;;;;;;;;;;;18.80;99.90;;;;;;4590869;19;19982;-35
2022/07/14 06:40:57;;;;;;;;;;;18.80;99.90;;;;;;4590941;19;19926;-35
2022/07/14 06:42:29;;;;;;;;;;;18.80;99.90;;;;;;4590201;19;19923;-37
2022/07/14 06:44:00;;;;;;;;;;;18.90;99.90;;;;;;4590394;19;19915;-36
2022/07/14 06:45:31;;;;;;;;;;;18.80;99.90;;;;;;4590530;19;20374;-36
2022/07/14 06:47:01;;;;;;;;;;;18.80;99.90;;;;;;4590834;19;19919;-40
2022/07/14 06:48:33;;;;;;;;;;;18.80;99.90;;;;;;4590239;19;19922;-35
2022/07/14 06:50:04;;;;;;;;;;;18.80;99.90;;;;;;4590749;19;19970;-33
2022/07/14 06:51:35;;;;;;;;;;;18.80;99.90;;;;;;4590099;19;20240;-35
2022/07/14 06:53:07;;;;;;;;;;;18.80;99.90;;;;;;4588469;19;19929;-34
2022/07/14 06:54:39;;;;;;;;;;;18.90;99.90;;;;;;4589743;19;19918;-35
2022/07/14 06:56:10;;;;;;;;;;;18.90;99.90;;;;;;4589180;19;19918;-35
2022/07/14 06:57:41;;;;;;;;;;;18.90;99.90;;;;;;4589895;19;20329;-33
2022/07/14 06:59:12;;;;;;;;;;;18.90;99.90;;;;;;4589792;19;19919;-37
2022/07/14 07:00:43;;;;;;;;;;;18.90;99.90;;;;;;4589846;19;19918;-34
2022/07/14 07:02:14;;;;;;;;;;;18.90;99.90;;;;;;4590183;19;19922;-38
2022/07/14 07:03:45;;;;;;;;;;;18.90;99.90;;;;;;4590338;19;20321;-34
2022/07/14 07:07:05;;;;;;;;;;;18.90;99.90;;;;;;4594534;19;19934;-36
2022/07/14 07:08:36;;;;;;;;;;;18.90;99.90;;;;;;4594791;19;19950;-37
2022/07/14 07:10:08;;;;;;;;;;;19.00;99.90;;;;;;4595226;19;20335;-36
2022/07/14 07:11:38;;;;;;;;;;;18.90;99.90;;;;;;4591216;19;19922;-35
2022/07/14 07:13:10;;;;;;;;;;;18.90;99.90;;;;;;4591354;19;20340;-39
2022/07/14 07:14:42;;;;;;;;;;;19.00;99.90;;;;;;4593353;19;19952;-37
2022/07/14 07:16:13;;;;;;;;;;;18.90;99.90;;;;;;4594575;19;19915;-35
2022/07/14 07:17:44;;;;;;;;;;;19.00;99.90;;;;;;4593301;19;19922;-36
2022/07/14 07:19:15;;;;;;;;;;;19.00;99.90;;;;;;4593267;19;19918;-36
2022/07/14 07:20:46;;;;;;;;;;;19.00;99.90;;;;;;4592633;19;19919;-36
2022/07/14 07:22:17;;;;;;;;;;;19.00;99.90;;;;;;4593986;19;20265;-38
2022/07/14 07:23:48;;;;;;;;;;;19.00;99.90;;;;;;4593593;19;19911;-39
2022/07/14 07:25:20;;;;;;;;;;;19.00;99.90;;;;;;4593773;19;19915;-35
2022/07/14 07:26:50;;;;;;;;;;;19.00;99.90;;;;;;4594500;19;19922;-38
2022/07/14 07:28:21;;;;;;;;;;;19.00;99.90;;;;;;4595820;19;20008;-34
2022/07/14 07:29:52;;;;;;;;;;;19.00;99.90;;;;;;4594215;19;20249;-39
2022/07/14 07:31:25;;;;;;;;;;;19.00;99.90;;;;;;4594378;19;19919;-37
2022/07/14 07:32:56;;;;;;;;;;;19.00;99.90;;;;;;4593272;19;19919;-33
2022/07/14 07:34:27;;;;;;;;;;;19.10;99.90;;;;;;4592584;19;19921;-36
2022/07/14 07:35:58;;;;;;;;;;;19.10;99.90;;;;;;4592995;19;20247;-35
2022/07/14 07:37:29;;;;;;;;;;;19.10;99.90;;;;;;4593321;19;20244;-39
2022/07/14 07:39:00;;;;;;;;;;;19.10;99.90;;;;;;4594422;19;19926;-36
2022/07/14 07:40:31;;;;;;;;;;;19.10;99.90;;;;;;4592840;19;19952;-36
2022/07/14 07:42:02;;;;;;;;;;;19.10;99.90;;;;;;4593423;19;20366;-34
2022/07/14 07:43:34;;;;;;;;;;;19.10;99.90;;;;;;4593816;19;20302;-41
2022/07/14 07:45:06;;;;;;;;;;;19.10;99.90;;;;;;4594340;19;20310;-37
2022/07/14 07:46:37;;;;;;;;;;;19.10;99.90;;;;;;4593655;19;19974;-33
2022/07/14 07:48:07;;;;;;;;;;;19.10;99.90;;;;;;4593646;19;20333;-34
2022/07/14 07:49:39;;;;;;;;;;;19.10;99.90;;;;;;4594732;19;19978;-37
2022/07/14 07:51:10;;;;;;;;;;;19.10;99.90;;;;;;4593628;19;19923;-35
2022/07/14 07:52:41;;;;;;;;;;;19.10;99.90;;;;;;4592719;19;19938;-33
2022/07/14 07:54:12;;;;;;;;;;;19.20;99.90;;;;;;4594231;19;19974;-34
2022/07/14 07:55:43;;;;;;;;;;;19.20;99.90;;;;;;4594666;19;19927;-35
2022/07/14 07:57:14;;;;;;;;;;;19.20;99.90;;;;;;4592764;19;19915;-35
2022/07/14 07:58:45;;;;;;;;;;;19.20;99.90;;;;;;4592913;19;19926;-38
2022/07/14 08:00:16;;;;;;;;;;;19.20;99.90;;;;;;4593967;19;19930;-36
2022/07/14 08:01:48;;;;;;;;;;;19.20;99.90;;;;;;4594552;19;20241;-34
2022/07/14 08:03:19;;;;;;;;;;;19.20;99.90;;;;;;4591561;19;19934;-34
2022/07/14 08:04:50;;;;;;;;;;;19.20;99.90;;;;;;4590670;19;20020;-36
2022/07/14 08:06:21;;;;;;;;;;;19.20;99.90;;;;;;4593391;19;20289;-35
2022/07/14 08:07:53;;;;;;;;;;;19.20;99.90;;;;;;4594224;19;19955;-38
2022/07/14 08:09:24;;;;;;;;;;;19.20;99.90;;;;;;4593689;19;19915;-36
2022/07/14 08:10:55;;;;;;;;;;;19.20;99.90;;;;;;4592637;19;19956;-41
2022/07/14 08:12:26;;;;;;;;;;;19.30;99.90;;;;;;4591876;19;20325;-35
2022/07/14 08:13:57;;;;;;;;;;;19.20;99.90;;;;;;4591995;19;19910;-38
2022/07/14 08:15:28;;;;;;;;;;;19.20;99.90;;;;;;4592242;19;20320;-37
2022/07/14 08:16:59;;;;;;;;;;;19.20;99.90;;;;;;4589018;19;19922;-36
2022/07/14 08:18:30;;;;;;;;;;;19.20;99.90;;;;;;4591265;19;19937;-35
2022/07/14 08:20:02;;;;;;;;;;;19.30;99.90;;;;;;4591762;19;19915;-37
2022/07/14 08:21:33;;;;;;;;;;;19.20;99.90;;;;;;4593669;19;20329;-38
2022/07/14 08:23:04;;;;;;;;;;;19.30;99.90;;;;;;4593697;19;19925;-38
2022/07/14 08:24:35;;;;;;;;;;;19.30;99.90;;;;;;4592302;19;19918;-38
2022/07/14 08:26:06;;;;;;;;;;;19.30;99.90;;;;;;4592397;19;19914;-32
2022/07/14 08:27:37;;;;;;;;;;;19.30;99.90;;;;;;4592838;19;19917;-41
2022/07/14 08:29:08;;;;;;;;;;;19.30;99.90;;;;;;4596163;19;20340;-35
2022/07/14 08:30:39;;;;;;;;;;;19.30;99.90;;;;;;4592864;19;19911;-35
2022/07/14 08:32:10;;;;;;;;;;;19.30;99.90;;;;;;4591463;19;19918;-37
2022/07/14 08:33:41;;;;;;;;;;;19.30;99.90;;;;;;4592518;19;19930;-33
2022/07/14 08:35:13;;;;;;;;;;;19.30;99.90;;;;;;4592345;19;19923;-36
2022/07/14 08:36:44;;;;;;;;;;;19.40;99.90;;;;;;4591480;19;19911;-36
2022/07/14 08:38:15;;;;;;;;;;;19.30;99.90;;;;;;4592346;19;19918;-35
2022/07/14 08:39:46;;;;;;;;;;;19.30;99.90;;;;;;4593383;19;19919;-35
2022/07/14 08:41:18;;;;;;;;;;;19.40;99.90;;;;;;4592723;19;19915;-39
2022/07/14 08:42:49;;;;;;;;;;;19.40;99.90;;;;;;4592957;19;19925;-37
2022/07/14 08:44:21;;;;;;;;;;;19.40;99.90;;;;;;4591696;19;19915;-38
2022/07/14 08:45:52;;;;;;;;;;;19.40;99.90;;;;;;4592764;19;20297;-38
2022/07/14 08:47:23;;;;;;;;;;;19.40;99.90;;;;;;4592469;19;19922;-37
2022/07/14 08:48:54;;;;;;;;;;;19.40;99.90;;;;;;4592861;19;20249;-35
2022/07/14 08:50:26;;;;;;;;;;;19.40;99.90;;;;;;4591611;19;19993;-37
2022/07/14 08:51:57;;;;;;;;;;;19.40;99.90;;;;;;4591458;19;19918;-35
2022/07/14 08:53:28;;;;;;;;;;;19.40;99.90;;;;;;4592104;19;20305;-36
2022/07/14 08:55:01;;;;;;;;;;;19.40;99.90;;;;;;4591600;19;19982;-35
2022/07/14 08:56:32;;;;;;;;;;;19.40;99.90;;;;;;4592058;19;19911;-34
2022/07/14 08:58:03;;;;;;;;;;;19.40;99.90;;;;;;4591647;19;19919;-35
2022/07/14 08:59:34;;;;;;;;;;;19.40;99.90;;;;;;4592153;19;19911;-41